createdAt,value
2019-04-14T00:01:41.249Z,4.60
2019-04-14T00:04:13.886Z,4.60
2019-04-14T00:06:44.140Z,4.60
2019-04-14T00:09:16.211Z,4.60
2019-04-14T00:11:46.342Z,4.60
2019-04-14T00:14:16.399Z,4.60
2019-04-14T00:16:46.754Z,4.70
2019-04-14T00:19:17.353Z,4.70
2019-04-14T00:21:47.523Z,4.70
2019-04-14T00:24:18.347Z,4.70
2019-04-14T00:26:48.781Z,4.70
2019-04-14T00:29:19.519Z,4.70
2019-04-14T00:31:51.062Z,4.70
2019-04-14T00:34:37.632Z,4.70
2019-04-14T00:37:12.105Z,4.70
2019-04-14T00:39:44.314Z,4.70
2019-04-14T00:42:21.346Z,4.70
2019-04-14T00:44:58.327Z,4.70
2019-04-14T00:47:29.472Z,4.70
2019-04-14T00:49:59.396Z,4.70
2019-04-14T00:52:29.848Z,4.70
2019-04-14T00:54:59.373Z,4.70
2019-04-14T00:57:29.054Z,4.70
2019-04-14T00:59:59.526Z,4.70
2019-04-14T01:02:29.698Z,4.70
2019-04-14T01:05:00.147Z,4.70
2019-04-14T01:07:29.014Z,4.70
2019-04-14T01:09:59.572Z,4.70
2019-04-14T01:12:29.980Z,4.70
2019-04-14T01:15:00.620Z,4.70
2019-04-14T01:17:31.421Z,4.70
2019-04-14T01:20:01.424Z,4.70
2019-04-14T01:22:31.461Z,4.70
2019-04-14T01:25:02.210Z,4.70
2019-04-14T01:27:34.120Z,4.70
2019-04-14T01:30:05.022Z,4.70
2019-04-14T01:32:35.108Z,4.70
2019-04-14T01:35:05.333Z,4.70
2019-04-14T01:37:35.995Z,4.70
2019-04-14T01:40:07.431Z,4.70
2019-04-14T01:42:37.733Z,4.70
2019-04-14T01:45:07.951Z,4.70
2019-04-14T01:47:39.871Z,4.70
2019-04-14T01:50:10.501Z,4.70
2019-04-14T01:52:41.019Z,4.70
2019-04-14T01:55:24.493Z,4.70
2019-04-14T01:57:56.772Z,4.70
2019-04-14T02:00:33.812Z,4.70
2019-04-14T02:03:04.168Z,4.70
2019-04-14T02:05:34.302Z,4.70
2019-04-14T02:08:04.449Z,4.70
2019-04-14T02:10:34.742Z,4.70
2019-04-14T02:13:04.989Z,4.70
2019-04-14T02:15:35.180Z,4.70
2019-04-14T02:18:05.607Z,4.70
2019-04-14T02:20:34.558Z,4.70
2019-04-14T02:23:04.072Z,4.70
2019-04-14T02:25:33.908Z,4.70
2019-04-14T02:28:04.687Z,4.70
2019-04-14T02:30:41.462Z,4.70
2019-04-14T02:33:48.559Z,4.70
2019-04-14T02:36:21.819Z,4.70
2019-04-14T02:38:45.414Z,4.70
2019-04-14T02:41:15.624Z,4.70
2019-04-14T02:43:41.394Z,4.70
2019-04-14T02:46:05.197Z,4.70
2019-04-14T02:48:46.271Z,4.70
2019-04-14T02:51:13.820Z,4.70
2019-04-14T02:53:42.636Z,4.70
2019-04-14T02:58:44.479Z,4.70
2019-04-14T03:01:23.376Z,4.70
2019-04-14T03:03:43.701Z,4.70
2019-04-14T03:06:12.590Z,4.70
2019-04-14T03:09:00.410Z,4.70
2019-04-14T03:11:17.408Z,4.70
2019-04-14T03:14:01.181Z,4.70
2019-04-14T03:16:27.337Z,4.70
2019-04-14T03:18:52.516Z,4.70
2019-04-14T03:24:17.022Z,4.70
2019-04-14T03:27:22.370Z,4.70
2019-04-14T03:30:08.165Z,4.70
2019-04-14T03:32:39.008Z,4.70
2019-04-14T03:35:16.492Z,4.70
2019-04-14T03:39:51.377Z,4.70
2019-04-14T03:42:28.876Z,4.80
2019-04-14T03:44:56.352Z,4.80
2019-04-14T03:47:25.617Z,4.80
2019-04-14T03:50:00.001Z,4.80
2019-04-14T03:52:51.653Z,4.80
2019-04-14T03:54:52.278Z,4.70
2019-04-14T03:57:08.234Z,4.80
2019-04-14T03:59:39.124Z,4.80
2019-04-14T04:02:09.610Z,4.80
2019-04-14T04:04:38.498Z,4.80
2019-04-14T04:07:08.237Z,4.80
2019-04-14T04:09:43.631Z,4.80
2019-04-14T04:12:13.907Z,4.80
2019-04-14T04:14:44.213Z,4.80
2019-04-14T04:17:15.450Z,4.80
2019-04-14T04:19:56.192Z,4.80
2019-04-14T04:22:28.142Z,4.80
2019-04-14T04:25:09.344Z,4.80
2019-04-14T04:27:41.701Z,4.80
2019-04-14T04:30:18.677Z,4.80
2019-04-14T04:32:53.510Z,4.90
2019-04-14T04:35:26.012Z,4.90
2019-04-14T04:38:03.045Z,4.90
2019-04-14T04:40:33.341Z,4.90
2019-04-14T04:43:03.818Z,4.90
2019-04-14T04:45:32.747Z,4.90
2019-04-14T04:48:15.203Z,4.90
2019-04-14T04:50:45.343Z,4.90
2019-04-14T04:53:15.791Z,4.90
2019-04-14T04:55:46.065Z,4.90
2019-04-14T04:58:17.332Z,5.00
2019-04-14T05:00:48.533Z,5.00
2019-04-14T05:03:19.588Z,5.00
2019-04-14T05:06:26.487Z,5.00
2019-04-14T05:09:07.793Z,5.00
2019-04-14T05:11:42.645Z,5.00
2019-04-14T05:14:13.785Z,5.00
2019-04-14T05:16:44.014Z,5.10
2019-04-14T05:19:21.849Z,5.10
2019-04-14T05:21:45.231Z,5.10
2019-04-14T05:24:15.646Z,5.10
2019-04-14T05:26:45.977Z,5.10
2019-04-14T05:29:16.673Z,5.20
2019-04-14T05:31:46.835Z,5.20
2019-04-14T05:34:17.281Z,5.20
2019-04-14T05:36:47.858Z,5.20
2019-04-14T05:39:17.761Z,5.20
2019-04-14T05:41:58.109Z,5.30
2019-04-14T05:44:18.642Z,5.40
2019-04-14T05:46:49.127Z,5.40
2019-04-14T05:49:29.564Z,5.40
2019-04-14T05:51:50.152Z,5.50
2019-04-14T05:54:20.620Z,5.60
2019-04-14T05:56:51.503Z,5.60
2019-04-14T05:59:21.981Z,5.70
2019-04-14T06:01:51.070Z,5.70
2019-04-14T06:04:20.610Z,5.70
2019-04-14T06:06:50.093Z,5.70
2019-04-14T06:09:19.598Z,5.70
2019-04-14T06:11:49.213Z,5.80
2019-04-14T06:14:18.663Z,5.80
2019-04-14T06:16:48.497Z,5.90
2019-04-14T06:19:17.800Z,5.90
2019-04-14T06:21:47.175Z,5.90
2019-04-14T06:24:17.494Z,6.00
2019-04-14T06:26:46.934Z,6.00
2019-04-14T06:29:35.732Z,6.10
2019-04-14T06:32:18.788Z,6.10
2019-04-14T06:35:06.137Z,6.20
2019-04-14T06:37:43.364Z,6.20
2019-04-14T06:40:12.879Z,6.30
2019-04-14T06:42:42.489Z,6.20
2019-04-14T06:45:11.942Z,6.30
2019-04-14T06:47:44.912Z,6.30
2019-04-14T06:50:13.617Z,6.30
2019-04-14T06:52:43.070Z,6.40
2019-04-14T06:55:12.528Z,6.50
2019-04-14T06:57:42.060Z,6.50
2019-04-14T07:00:12.135Z,6.60
2019-04-14T07:02:41.818Z,6.60
2019-04-14T07:05:11.658Z,6.60
2019-04-14T07:07:41.256Z,6.60
2019-04-14T07:10:10.714Z,6.60
2019-04-14T07:12:52.915Z,6.60
2019-04-14T07:15:22.575Z,6.70
2019-04-14T07:17:52.067Z,6.70
2019-04-14T07:20:22.508Z,6.70
2019-04-14T07:22:52.474Z,6.80
2019-04-14T07:25:22.583Z,6.80
2019-04-14T07:27:52.047Z,6.80
2019-04-14T07:30:23.093Z,6.90
2019-04-14T07:32:54.351Z,6.90
2019-04-14T07:35:38.282Z,7.00
2019-04-14T07:38:10.891Z,7.00
2019-04-14T07:41:03.851Z,7.10
2019-04-14T07:43:37.920Z,7.20
2019-04-14T07:46:25.438Z,7.20
2019-04-14T07:49:17.445Z,7.20
2019-04-14T07:51:51.790Z,7.30
2019-04-14T07:54:41.310Z,7.30
2019-04-14T07:57:14.913Z,7.30
2019-04-14T07:59:52.290Z,7.40
2019-04-14T08:02:23.499Z,7.40
2019-04-14T08:05:00.560Z,7.50
2019-04-14T08:07:42.713Z,7.60
2019-04-14T08:10:12.834Z,7.60
2019-04-14T08:12:42.435Z,7.60
2019-04-14T08:15:24.378Z,7.60
2019-04-14T08:17:53.943Z,7.70
2019-04-14T08:20:27.804Z,7.80
2019-04-14T08:22:57.921Z,7.80
2019-04-14T08:25:26.919Z,7.90
2019-04-14T08:27:56.375Z,7.90
2019-04-14T08:30:27.571Z,8.00
2019-04-14T08:32:57.122Z,8.00
2019-04-14T08:35:26.656Z,8.10
2019-04-14T08:37:56.259Z,8.20
2019-04-14T08:40:25.797Z,8.20
2019-04-14T08:43:00.116Z,8.30
2019-04-14T08:45:34.298Z,8.30
2019-04-14T08:48:17.526Z,8.30
2019-04-14T08:50:48.724Z,8.30
2019-04-14T08:53:19.790Z,8.30
2019-04-14T08:56:21.505Z,8.30
2019-04-14T08:59:10.770Z,8.30
2019-04-14T09:01:42.163Z,8.30
2019-04-14T09:04:13.395Z,8.30
2019-04-14T09:06:44.590Z,8.30
2019-04-14T09:09:18.650Z,8.20
2019-04-14T09:11:52.791Z,8.20
2019-04-14T09:14:22.320Z,8.30
2019-04-14T09:16:51.698Z,8.30
2019-04-14T09:19:21.612Z,8.40
2019-04-14T09:21:51.229Z,8.40
2019-04-14T09:24:21.327Z,8.50
2019-04-14T09:26:53.540Z,8.60
2019-04-14T09:29:24.665Z,8.60
2019-04-14T09:31:59.194Z,8.70
2019-04-14T09:34:33.777Z,8.60
2019-04-14T09:37:05.495Z,8.70
2019-04-14T09:39:38.003Z,8.70
2019-04-14T09:42:12.842Z,8.80
2019-04-14T09:44:50.497Z,8.90
2019-04-14T09:47:22.724Z,9.00
2019-04-14T09:49:56.368Z,9.20
2019-04-14T09:52:30.949Z,9.30
2019-04-14T09:55:04.847Z,9.40
2019-04-14T09:57:35.792Z,9.50
2019-04-14T10:00:08.283Z,9.60
2019-04-14T10:02:42.158Z,9.80
2019-04-14T10:05:13.125Z,9.80
2019-04-14T10:07:44.542Z,10.00
2019-04-14T10:10:15.265Z,10.10
2019-04-14T10:12:45.230Z,10.20
2019-04-14T10:15:14.933Z,10.30
2019-04-14T10:17:44.746Z,10.30
2019-04-14T10:20:14.587Z,10.40
2019-04-14T10:22:44.146Z,10.50
2019-04-14T10:25:14.006Z,10.60
2019-04-14T10:27:43.746Z,10.70
2019-04-14T10:30:13.296Z,10.80
2019-04-14T10:32:42.842Z,11.00
2019-04-14T10:35:12.242Z,11.20
2019-04-14T10:38:01.027Z,11.40
2019-04-14T10:40:30.593Z,11.60
2019-04-14T10:42:59.981Z,11.70
2019-04-14T10:45:29.455Z,11.90
2019-04-14T10:47:58.828Z,12.00
2019-04-14T10:50:31.197Z,12.00
2019-04-14T10:52:59.342Z,12.00
2019-04-14T10:55:28.786Z,12.00
2019-04-14T10:57:58.454Z,12.00
2019-04-14T11:00:27.916Z,12.00
2019-04-14T11:02:57.474Z,12.10
2019-04-14T11:05:28.565Z,12.20
2019-04-14T11:07:58.039Z,12.30
2019-04-14T11:10:27.430Z,12.50
2019-04-14T11:12:57.073Z,12.50
2019-04-14T11:15:26.709Z,12.60
2019-04-14T11:17:56.130Z,12.70
2019-04-14T11:20:25.503Z,12.80
2019-04-14T11:23:03.194Z,12.90
2019-04-14T11:25:25.931Z,12.80
2019-04-14T11:27:55.324Z,12.80
2019-04-14T11:30:25.179Z,12.70
2019-04-14T11:33:08.481Z,12.70
2019-04-14T11:35:56.193Z,12.80
2019-04-14T11:38:27.443Z,12.80
2019-04-14T11:41:04.505Z,12.80
2019-04-14T11:43:34.107Z,12.80
2019-04-14T11:46:04.242Z,12.90
2019-04-14T11:48:33.705Z,12.90
2019-04-14T11:51:03.435Z,12.90
2019-04-14T11:53:36.418Z,12.90
2019-04-14T11:56:06.457Z,12.90
2019-04-14T11:58:40.549Z,12.90
2019-04-14T12:01:30.024Z,13.00
2019-04-14T12:04:01.285Z,12.90
2019-04-14T12:06:50.044Z,12.90
2019-04-14T12:09:24.065Z,12.90
2019-04-14T12:11:55.147Z,13.00
2019-04-14T12:14:28.334Z,13.10
2019-04-14T12:16:58.828Z,13.20
2019-04-14T12:19:32.655Z,13.30
2019-04-14T12:22:08.025Z,13.30
2019-04-14T12:24:31.781Z,13.30
2019-04-14T12:27:01.791Z,13.20
2019-04-14T12:29:32.563Z,13.20
2019-04-14T12:32:02.223Z,13.10
2019-04-14T12:34:31.600Z,13.10
2019-04-14T12:37:02.106Z,13.10
2019-04-14T12:39:31.501Z,13.30
2019-04-14T12:42:11.700Z,13.60
2019-04-14T12:44:51.768Z,13.90
2019-04-14T12:47:25.993Z,14.20
2019-04-14T12:50:03.341Z,14.30
2019-04-14T12:52:32.915Z,14.40
2019-04-14T12:55:02.572Z,14.70
2019-04-14T12:57:37.060Z,15.10
2019-04-14T13:00:08.279Z,15.40
2019-04-14T13:02:40.260Z,15.80
2019-04-14T13:05:10.219Z,16.10
2019-04-14T13:07:39.734Z,16.30
2019-04-14T13:10:09.125Z,16.50
2019-04-14T13:12:38.551Z,16.50
2019-04-14T13:15:13.351Z,16.70
2019-04-14T13:17:42.916Z,16.90
2019-04-14T13:20:13.057Z,17.20
2019-04-14T13:22:42.508Z,17.30
2019-04-14T13:25:16.718Z,17.40
2019-04-14T13:27:46.489Z,17.60
2019-04-14T13:30:17.661Z,17.70
2019-04-14T13:32:47.075Z,17.70
2019-04-14T13:35:17.092Z,17.80
2019-04-14T13:37:49.876Z,17.90
2019-04-14T13:40:19.716Z,18.10
2019-04-14T13:42:49.379Z,18.20
2019-04-14T13:45:18.972Z,18.30
2019-04-14T13:47:48.513Z,18.30
2019-04-14T13:50:18.004Z,18.40
2019-04-14T13:52:48.661Z,18.40
2019-04-14T13:55:18.225Z,18.40
2019-04-14T13:57:49.996Z,18.30
2019-04-14T14:00:19.655Z,18.30
2019-04-14T14:02:49.329Z,18.20
2019-04-14T14:05:18.971Z,18.20
2019-04-14T14:07:48.419Z,18.10
2019-04-14T14:10:18.166Z,18.00
2019-04-14T14:12:55.383Z,17.90
2019-04-14T14:15:28.242Z,17.80
2019-04-14T14:18:06.268Z,17.70
2019-04-14T14:20:53.770Z,17.60
2019-04-14T14:23:27.949Z,17.60
2019-04-14T14:26:01.993Z,17.60
2019-04-14T14:28:31.888Z,17.50
2019-04-14T14:31:01.567Z,17.50
2019-04-14T14:33:31.094Z,17.50
2019-04-14T14:36:00.474Z,17.40
2019-04-14T14:38:29.863Z,17.40
2019-04-14T14:41:02.236Z,17.40
2019-04-14T14:43:31.902Z,17.30
2019-04-14T14:46:19.439Z,17.20
2019-04-14T14:48:53.826Z,17.10
2019-04-14T14:51:24.945Z,17.00
2019-04-14T14:53:54.470Z,16.90
2019-04-14T14:56:23.950Z,16.80
2019-04-14T14:58:53.496Z,16.60
2019-04-14T15:01:22.942Z,16.40
2019-04-14T15:03:52.343Z,16.20
2019-04-14T15:06:21.777Z,16.00
2019-04-14T15:08:51.192Z,15.80
2019-04-14T15:11:20.585Z,15.70
2019-04-14T15:13:50.268Z,15.60
2019-04-14T15:16:19.721Z,15.40
2019-04-14T15:18:49.177Z,15.30
2019-04-14T15:21:18.698Z,15.20
2019-04-14T15:23:48.104Z,15.10
2019-04-14T15:26:18.723Z,15.00
2019-04-14T15:28:48.306Z,14.90
2019-04-14T15:31:17.734Z,14.90
2019-04-14T15:33:47.164Z,14.80
2019-04-14T15:36:16.990Z,14.70
2019-04-14T15:38:46.469Z,14.60
2019-04-14T15:41:18.580Z,14.60
2019-04-14T15:43:49.620Z,14.50
2019-04-14T15:46:18.989Z,14.50
2019-04-14T15:48:48.452Z,14.40
2019-04-14T15:51:19.135Z,14.40
2019-04-14T15:53:48.686Z,14.30
2019-04-14T15:56:36.128Z,14.20
2019-04-14T15:59:10.154Z,14.20
2019-04-14T16:01:47.076Z,14.10
2019-04-14T16:04:35.092Z,14.00
2019-04-14T16:07:22.720Z,13.90
2019-04-14T16:10:10.179Z,13.90
2019-04-14T16:12:52.837Z,13.80
2019-04-14T16:15:33.318Z,13.70
2019-04-14T16:18:04.228Z,13.60
2019-04-14T16:20:58.248Z,13.50
2019-04-14T16:23:49.920Z,13.40
2019-04-14T16:29:39.311Z,13.20
2019-04-14T16:32:10.404Z,13.20
2019-04-14T16:34:47.399Z,13.10
2019-04-14T16:37:17.189Z,13.00
2019-04-14T16:39:46.757Z,12.90
2019-04-14T16:42:16.151Z,12.80
2019-04-14T16:44:45.608Z,12.70
2019-04-14T16:47:15.060Z,12.60
2019-04-14T16:49:44.501Z,12.50
2019-04-14T16:52:15.602Z,12.40
2019-04-14T16:54:49.976Z,12.40
2019-04-14T16:57:39.067Z,12.30
2019-04-14T17:00:10.388Z,12.20
2019-04-14T17:02:41.191Z,12.10
2019-04-14T17:05:12.984Z,12.10
2019-04-14T17:07:42.553Z,12.00
2019-04-14T17:10:11.922Z,11.90
2019-04-14T17:12:41.398Z,11.80
2019-04-14T17:15:12.502Z,11.80
2019-04-14T17:17:43.530Z,11.70
2019-04-14T17:20:17.565Z,11.60
2019-04-14T17:22:48.704Z,11.60
2019-04-14T17:25:28.835Z,11.50
2019-04-14T17:28:05.968Z,11.40
2019-04-14T17:30:40.084Z,11.30
2019-04-14T17:33:18.078Z,11.20
2019-04-14T17:36:01.493Z,11.20
2019-04-14T17:38:36.607Z,11.10
2019-04-14T17:41:14.403Z,11.00
2019-04-14T17:43:51.589Z,10.90
2019-04-14T17:46:39.337Z,10.90
2019-04-14T17:49:19.493Z,10.80
2019-04-14T17:51:50.699Z,10.70
2019-04-14T17:54:29.281Z,10.70
2019-04-14T17:57:00.559Z,10.60
2019-04-14T17:59:37.942Z,10.60
2019-04-14T18:02:10.570Z,10.50
2019-04-14T18:04:44.435Z,10.40
2019-04-14T18:07:15.478Z,10.40
2019-04-14T18:09:52.856Z,10.30
2019-04-14T18:12:23.884Z,10.30
2019-04-14T18:15:11.864Z,10.20
2019-04-14T18:17:51.653Z,10.20
2019-04-14T18:20:22.751Z,10.10
2019-04-14T18:22:52.308Z,10.10
2019-04-14T18:25:21.782Z,10.00
2019-04-14T18:27:52.914Z,10.00
2019-04-14T18:30:27.994Z,9.90
2019-04-14T18:33:01.150Z,9.90
2019-04-14T18:35:33.035Z,9.80
2019-04-14T18:38:06.980Z,9.80
2019-04-14T18:40:50.093Z,9.80
2019-04-14T18:43:27.421Z,9.80
2019-04-14T18:45:58.423Z,9.70
2019-04-14T18:48:41.831Z,9.60
2019-04-14T18:51:15.714Z,9.60
2019-04-14T18:53:56.105Z,9.50
2019-04-14T18:56:27.138Z,9.50
2019-04-14T18:59:16.474Z,9.50
2019-04-14T19:01:47.502Z,9.40
2019-04-14T19:04:16.887Z,9.40
2019-04-14T19:06:46.260Z,9.40
2019-04-14T19:09:15.619Z,9.30
2019-04-14T19:11:56.073Z,9.20
2019-04-14T19:14:27.442Z,9.20
2019-04-14T19:17:02.827Z,9.20
2019-04-14T19:19:34.032Z,9.20
2019-04-14T19:22:03.467Z,9.10
2019-04-14T19:24:32.843Z,9.10
2019-04-14T19:27:02.273Z,9.00
2019-04-14T19:29:31.656Z,9.00
2019-04-14T19:32:01.040Z,9.00
2019-04-14T19:34:30.611Z,9.00
2019-04-14T19:37:00.414Z,9.00
2019-04-14T19:39:29.834Z,8.90
2019-04-14T19:41:59.436Z,8.80
2019-04-14T19:44:28.819Z,8.80
2019-04-14T19:46:58.444Z,8.80
2019-04-14T19:49:27.876Z,8.70
2019-04-14T19:51:57.623Z,8.80
2019-04-14T19:54:27.108Z,8.70
2019-04-14T19:56:56.495Z,8.70
2019-04-14T19:59:25.846Z,8.60
2019-04-14T20:01:55.290Z,8.60
2019-04-14T20:04:24.838Z,8.60
2019-04-14T20:06:54.383Z,8.60
2019-04-14T20:09:23.768Z,8.50
2019-04-14T20:11:53.298Z,8.50
2019-04-14T20:14:23.141Z,8.50
2019-04-14T20:16:54.754Z,8.50
2019-04-14T20:19:31.888Z,8.40
2019-04-14T20:22:02.985Z,8.40
2019-04-14T20:24:34.092Z,8.40
2019-04-14T20:27:20.235Z,8.40
2019-04-14T20:29:51.262Z,8.40
2019-04-14T20:32:27.988Z,8.40
2019-04-14T20:34:57.364Z,8.30
2019-04-14T20:37:26.757Z,8.30
2019-04-14T20:39:56.110Z,8.30
2019-04-14T20:42:25.541Z,8.20
2019-04-14T20:44:55.194Z,8.20
2019-04-14T20:47:24.574Z,8.20
2019-04-14T20:49:54.553Z,8.20
2019-04-14T20:52:23.926Z,8.10
2019-04-14T20:54:53.872Z,8.10
2019-04-14T20:57:23.645Z,8.00
2019-04-14T20:59:53.357Z,8.00
2019-04-14T21:02:30.896Z,8.00
2019-04-14T21:05:02.349Z,7.90
2019-04-14T21:07:49.796Z,7.90
2019-04-14T21:10:30.420Z,7.90
2019-04-14T21:13:03.841Z,7.80
2019-04-14T21:15:44.143Z,7.80
2019-04-14T21:18:18.202Z,7.80
2019-04-14T21:20:55.328Z,7.70
2019-04-14T21:23:26.369Z,7.70
2019-04-14T21:26:01.218Z,7.70
2019-04-14T21:28:44.377Z,7.70
2019-04-14T21:31:16.474Z,7.70
2019-04-14T21:33:50.435Z,7.60
2019-04-14T21:36:30.240Z,7.60
2019-04-14T21:39:13.356Z,7.60
2019-04-14T21:41:44.552Z,7.60
2019-04-14T21:44:13.912Z,7.60
2019-04-14T21:46:44.435Z,7.50
2019-04-14T21:49:13.843Z,7.50
2019-04-14T21:52:00.090Z,7.50
2019-04-14T21:54:29.576Z,7.50
2019-04-14T21:57:17.322Z,7.50
2019-04-14T22:00:05.254Z,7.50
2019-04-14T22:02:54.492Z,7.40
2019-04-14T22:05:35.856Z,7.40
2019-04-14T22:08:09.994Z,7.40
2019-04-14T22:10:41.825Z,7.30
2019-04-14T22:13:13.297Z,7.30
2019-04-14T22:15:43.113Z,7.30
2019-04-14T22:18:12.465Z,7.20
2019-04-14T22:20:42.839Z,7.20
2019-04-14T22:23:12.712Z,7.20
2019-04-14T22:25:42.462Z,7.20
2019-04-14T22:28:15.516Z,7.20
2019-04-14T22:30:45.177Z,7.10
2019-04-14T22:33:15.280Z,7.10
2019-04-14T22:35:45.095Z,7.10
2019-04-14T22:38:15.406Z,7.00
2019-04-14T22:40:45.630Z,7.00
2019-04-14T22:43:15.328Z,7.00
2019-04-14T22:45:45.036Z,7.00
2019-04-14T22:48:14.810Z,7.00
2019-04-14T22:50:45.160Z,7.00
2019-04-14T22:53:16.681Z,7.00
2019-04-14T22:55:46.401Z,6.90
2019-04-14T22:58:16.201Z,6.90
2019-04-14T23:00:51.505Z,6.90
2019-04-14T23:03:30.240Z,6.90
2019-04-14T23:06:04.296Z,6.80
2019-04-14T23:08:36.205Z,6.80
2019-04-14T23:11:11.951Z,6.80
2019-04-14T23:13:43.126Z,6.80
2019-04-14T23:16:14.592Z,6.70
2019-04-14T23:18:55.011Z,6.70
2019-04-14T23:21:36.591Z,6.70
2019-04-14T23:24:14.035Z,6.70
2019-04-14T23:26:52.487Z,6.60
2019-04-14T23:29:14.714Z,6.60
2019-04-14T23:31:44.516Z,6.60
2019-04-14T23:34:14.114Z,6.50
2019-04-14T23:36:43.609Z,6.50
2019-04-14T23:39:13.256Z,6.50
2019-04-14T23:41:42.899Z,6.40
2019-04-14T23:44:12.727Z,6.40
2019-04-14T23:46:44.313Z,6.40
2019-04-14T23:49:13.830Z,6.40
2019-04-14T23:51:44.312Z,6.30
2019-04-14T23:54:13.257Z,6.30
2019-04-14T23:56:42.601Z,6.30
2019-04-14T23:59:11.997Z,6.30
